createdAt,value
2019-04-05T00:01:42.288Z,12.47
2019-04-05T00:04:30.472Z,12.13
2019-04-05T00:07:18.583Z,12.90
2019-04-05T00:10:27.290Z,11.83
2019-04-05T00:13:08.182Z,12.47
2019-04-05T00:15:49.384Z,12.57
2019-04-05T00:18:30.500Z,12.13
2019-04-05T00:21:11.178Z,12.50
2019-04-05T00:23:51.529Z,13.00
2019-04-05T00:26:32.227Z,12.67
2019-04-05T00:29:13.170Z,11.97
2019-04-05T00:31:54.039Z,12.83
2019-04-05T00:34:35.048Z,12.70
2019-04-05T00:37:18.690Z,12.60
2019-04-05T00:39:59.706Z,13.40
2019-04-05T00:42:40.764Z,12.83
2019-04-05T00:45:28.077Z,13.70
2019-04-05T00:48:04.212Z,13.23
2019-04-05T00:50:44.777Z,12.73
2019-04-05T00:53:25.629Z,12.07
2019-04-05T00:56:06.266Z,12.63
2019-04-05T00:58:46.741Z,12.20
2019-04-05T01:01:27.510Z,13.37
2019-04-05T01:04:08.311Z,11.83
2019-04-05T01:06:49.083Z,12.73
2019-04-05T01:09:30.109Z,12.27
2019-04-05T01:12:10.887Z,12.73
2019-04-05T01:14:51.720Z,13.40
2019-04-05T01:17:32.531Z,12.13
2019-04-05T01:20:13.324Z,11.73
2019-04-05T01:22:54.152Z,11.70
2019-04-05T01:25:35.145Z,13.90
2019-04-05T01:28:16.372Z,13.10
2019-04-05T01:30:57.123Z,12.50
2019-04-05T01:33:37.743Z,12.20
2019-04-05T01:36:18.661Z,13.00
2019-04-05T01:38:59.846Z,13.10
2019-04-05T01:41:40.497Z,13.20
2019-04-05T01:44:21.777Z,12.60
2019-04-05T01:47:02.152Z,12.53
2019-04-05T01:49:43.410Z,13.63
2019-04-05T01:52:24.252Z,13.70
2019-04-05T01:55:04.844Z,12.80
2019-04-05T01:57:45.423Z,12.93
2019-04-05T02:00:25.937Z,13.83
2019-04-05T02:03:06.620Z,13.57
2019-04-05T02:05:47.203Z,14.60
2019-04-05T02:08:28.265Z,13.00
2019-04-05T02:11:08.904Z,14.33
2019-04-05T02:13:50.237Z,13.50
2019-04-05T02:16:30.937Z,13.30
2019-04-05T02:19:12.158Z,14.00
2019-04-05T02:21:53.197Z,13.77
2019-04-05T02:24:34.027Z,13.40
2019-04-05T02:27:14.618Z,13.97
2019-04-05T02:33:08.617Z,14.30
2019-04-05T02:35:40.376Z,13.87
2019-04-05T02:38:09.373Z,15.70
2019-04-05T02:40:41.271Z,14.20
2019-04-05T02:43:14.098Z,13.90
2019-04-05T02:45:43.896Z,14.90
2019-04-05T02:48:13.930Z,14.60
2019-04-05T02:50:46.227Z,14.13
2019-04-05T02:53:17.668Z,14.50
2019-04-05T02:55:46.830Z,15.37
2019-04-05T02:58:15.411Z,15.30
2019-04-05T03:00:45.593Z,14.53
2019-04-05T03:03:16.508Z,14.37
2019-04-05T03:05:46.404Z,13.77
2019-04-05T03:08:16.827Z,13.30
2019-04-05T03:11:04.971Z,15.30
2019-04-05T03:13:36.267Z,14.07
2019-04-05T03:16:06.241Z,14.90
2019-04-05T03:18:36.228Z,14.83
2019-04-05T03:21:06.006Z,14.33
2019-04-05T03:23:36.003Z,14.87
2019-04-05T03:26:05.434Z,15.37
2019-04-05T03:28:35.602Z,14.50
2019-04-05T03:31:04.320Z,15.37
2019-04-05T03:33:32.815Z,14.67
2019-04-05T03:36:01.401Z,14.73
2019-04-05T03:38:33.033Z,16.00
2019-04-05T03:41:01.628Z,16.30
2019-04-05T03:43:30.362Z,15.63
2019-04-05T03:45:58.735Z,15.43
2019-04-05T03:48:27.542Z,15.43
2019-04-05T03:50:56.075Z,15.80
2019-04-05T03:53:24.537Z,15.30
2019-04-05T03:55:53.087Z,14.80
2019-04-05T03:58:21.575Z,15.70
2019-04-05T04:00:50.113Z,17.20
2019-04-05T04:03:18.662Z,16.77
2019-04-05T04:05:47.664Z,16.17
2019-04-05T04:08:16.943Z,15.07
2019-04-05T04:10:47.171Z,15.50
2019-04-05T04:13:16.090Z,15.20
2019-04-05T04:15:45.287Z,15.17
2019-04-05T04:18:15.648Z,16.60
2019-04-05T04:20:50.220Z,16.33
2019-04-05T04:23:20.941Z,16.60
2019-04-05T04:25:51.855Z,14.90
2019-04-05T04:28:21.416Z,15.87
2019-04-05T04:30:50.495Z,16.17
2019-04-05T04:33:19.584Z,15.57
2019-04-05T04:35:48.872Z,16.50
2019-04-05T04:38:19.014Z,15.50
2019-04-05T04:40:48.188Z,16.43
2019-04-05T04:43:17.202Z,16.17
2019-04-05T04:45:46.308Z,15.57
2019-04-05T04:48:15.732Z,16.33
2019-04-05T04:50:45.096Z,14.87
2019-04-05T04:53:14.842Z,15.63
2019-04-05T04:55:43.800Z,15.93
2019-04-05T04:58:12.726Z,16.60
2019-04-05T05:00:41.914Z,16.23
2019-04-05T05:03:11.027Z,16.20
2019-04-05T05:05:40.328Z,17.53
2019-04-05T05:08:09.589Z,17.00
2019-04-05T05:10:38.684Z,17.90
2019-04-05T05:13:08.062Z,15.37
2019-04-05T05:15:37.669Z,17.73
2019-04-05T05:18:06.650Z,17.07
2019-04-05T05:20:35.874Z,16.80
2019-04-05T05:23:04.924Z,16.23
2019-04-05T05:25:34.270Z,17.00
2019-04-05T05:28:03.373Z,16.60
2019-04-05T05:30:38.375Z,17.07
2019-04-05T05:33:07.594Z,16.77
2019-04-05T05:35:36.772Z,17.43
2019-04-05T05:38:05.949Z,15.83
2019-04-05T05:40:35.611Z,18.03
2019-04-05T05:43:05.044Z,16.57
2019-04-05T05:45:33.937Z,16.93
2019-04-05T05:48:03.045Z,17.17
2019-04-05T05:50:32.056Z,17.43
2019-04-05T05:53:00.862Z,17.63
2019-04-05T05:55:30.156Z,17.93
2019-04-05T05:58:09.266Z,18.40
2019-04-05T06:00:38.124Z,16.17
2019-04-05T06:03:10.783Z,17.60
2019-04-05T06:05:37.506Z,18.40
2019-04-05T06:08:06.340Z,18.70
2019-04-05T06:10:35.454Z,18.07
2019-04-05T06:13:06.839Z,19.20
2019-04-05T06:15:37.366Z,23.80
2019-04-05T06:18:05.761Z,21.83
2019-04-05T06:20:34.185Z,23.27
2019-04-05T06:23:02.569Z,25.93
2019-04-05T06:25:31.014Z,25.83
2019-04-05T06:27:59.927Z,27.70
2019-04-05T06:30:29.005Z,29.17
2019-04-05T06:32:57.642Z,31.40
2019-04-05T06:35:26.078Z,31.90
2019-04-05T06:37:54.518Z,32.60
2019-04-05T06:40:22.912Z,38.33
2019-04-05T06:42:51.312Z,36.90
2019-04-05T06:45:19.735Z,38.30
2019-04-05T06:47:48.210Z,39.90
2019-04-05T06:50:16.676Z,40.00
2019-04-05T06:52:45.105Z,40.13
2019-04-05T06:55:13.508Z,42.40
2019-04-05T06:57:41.984Z,40.93
2019-04-05T07:00:10.424Z,43.37
2019-04-05T07:02:38.907Z,42.57
2019-04-05T07:05:07.596Z,43.90
2019-04-05T07:07:35.979Z,45.27
2019-04-05T07:10:04.417Z,41.33
2019-04-05T07:12:32.901Z,41.93
2019-04-05T07:15:01.349Z,43.77
2019-04-05T07:17:29.971Z,42.23
2019-04-05T07:19:58.328Z,42.37
2019-04-05T07:22:38.491Z,43.03
2019-04-05T07:24:56.943Z,46.07
2019-04-05T07:27:25.455Z,45.80
2019-04-05T07:29:53.932Z,43.87
2019-04-05T07:32:22.379Z,44.40
2019-04-05T07:34:50.797Z,42.47
2019-04-05T07:37:19.133Z,44.20
2019-04-05T07:39:47.569Z,44.00
2019-04-05T07:42:15.968Z,43.77
2019-04-05T07:44:44.327Z,41.97
2019-04-05T07:47:12.739Z,44.00
2019-04-05T07:49:41.121Z,44.90
2019-04-05T07:52:09.667Z,42.30
2019-04-05T07:54:38.071Z,48.77
2019-04-05T07:57:06.939Z,44.97
2019-04-05T07:59:35.407Z,47.13
2019-04-05T08:02:04.339Z,47.37
2019-04-05T08:04:32.713Z,45.40
2019-04-05T08:07:02.883Z,47.23
2019-04-05T08:09:32.595Z,46.10
2019-04-05T08:12:01.311Z,45.90
2019-04-05T08:14:29.924Z,47.43
2019-04-05T08:16:58.516Z,47.97
2019-04-05T08:19:26.925Z,46.93
2019-04-05T08:21:55.345Z,42.50
2019-04-05T08:24:23.740Z,43.30
2019-04-05T08:26:52.157Z,44.10
2019-04-05T08:29:20.515Z,42.80
2019-04-05T08:31:48.933Z,42.53
2019-04-05T08:34:17.324Z,42.70
2019-04-05T08:37:04.939Z,44.27
2019-04-05T08:39:52.546Z,42.50
2019-04-05T08:42:40.253Z,42.10
2019-04-05T08:45:27.856Z,43.57
2019-04-05T08:48:15.582Z,43.33
2019-04-05T08:54:11.668Z,37.27
2019-04-05T08:56:59.264Z,38.73
2019-04-05T08:59:46.948Z,37.10
2019-04-05T09:02:34.561Z,38.90
2019-04-05T09:05:23.920Z,42.20
2019-04-05T09:08:11.516Z,40.80
2019-04-05T09:10:59.215Z,42.53
2019-04-05T09:13:46.800Z,40.80
2019-04-05T09:22:23.820Z,42.73
2019-04-05T09:25:02.016Z,43.70
2019-04-05T11:41:39.065Z,34.90
2019-04-05T11:44:19.563Z,37.37
2019-04-05T11:47:00.127Z,36.03
2019-04-05T11:49:40.703Z,35.90
2019-04-05T11:52:20.091Z,36.17
2019-04-05T11:55:08.367Z,35.70
2019-04-05T11:57:56.647Z,34.50
2019-04-05T12:01:03.845Z,35.90
2019-04-05T12:03:51.978Z,35.53
2019-04-05T12:06:40.137Z,37.43
2019-04-05T12:09:28.299Z,36.20
2019-04-05T12:12:16.671Z,36.43
2019-04-05T12:15:06.454Z,35.37
2019-04-05T12:17:55.279Z,36.43
2019-04-05T12:20:52.180Z,36.07
2019-04-05T12:23:33.599Z,36.30
2019-04-05T12:26:23.455Z,38.10
2019-04-05T12:29:11.511Z,37.80
2019-04-05T12:31:59.577Z,38.77
2019-04-05T12:34:49.514Z,36.73
2019-04-05T12:37:49.618Z,38.53
2019-04-05T12:40:27.172Z,37.20
2019-04-05T12:43:15.251Z,36.90
2019-04-05T12:48:52.941Z,35.73
2019-04-05T12:51:41.118Z,38.10
2019-04-05T12:54:29.266Z,37.73
2019-04-05T12:57:17.313Z,38.40
2019-04-05T13:03:20.836Z,37.70
2019-04-05T13:06:09.803Z,34.67
2019-04-05T13:12:05.138Z,34.10
2019-04-05T13:14:53.460Z,36.07
2019-04-05T13:17:35.635Z,36.40
2019-04-05T13:23:29.367Z,34.67
2019-04-05T13:32:22.345Z,36.67
2019-04-05T13:35:02.964Z,35.87
2019-04-05T13:37:43.773Z,35.77
2019-04-05T13:52:32.107Z,37.30
2019-04-05T14:04:09.323Z,37.13
2019-04-05T14:06:53.276Z,36.90
2019-04-05T14:09:33.064Z,36.50
2019-04-05T14:12:14.037Z,37.10
2019-04-05T14:14:54.754Z,36.90
2019-04-05T14:17:35.477Z,38.73
2019-04-05T14:20:19.561Z,38.10
2019-04-05T14:22:59.096Z,36.60
2019-04-05T14:25:39.902Z,38.70
2019-04-05T14:28:20.421Z,38.50
2019-04-05T14:31:02.473Z,36.40
2019-04-05T14:33:44.010Z,36.40
2019-04-05T14:36:25.059Z,36.90
2019-04-05T14:39:05.542Z,37.80
2019-04-05T14:41:46.240Z,35.70
2019-04-05T14:44:26.923Z,39.07
2019-04-05T14:50:07.183Z,34.57
2019-04-05T15:46:32.820Z,37.87
2019-04-05T15:49:11.672Z,104.33
2019-04-05T16:18:37.669Z,33.37
2019-04-05T16:27:15.658Z,35.87
2019-04-05T17:17:33.128Z,36.90
2019-04-05T17:20:14.589Z,37.37
2019-04-05T17:22:58.444Z,39.63
2019-04-05T17:28:37.096Z,38.93
2019-04-05T17:31:17.837Z,39.53
2019-04-05T17:33:58.699Z,41.00
2019-04-05T17:36:39.327Z,35.80
2019-04-05T17:39:20.229Z,37.27
2019-04-05T17:42:00.827Z,36.87
2019-04-05T17:44:41.550Z,39.37
2019-04-05T17:47:22.447Z,38.17
2019-04-05T17:50:03.227Z,36.60
2019-04-05T17:52:43.976Z,39.47
2019-04-05T17:55:25.037Z,38.63
2019-04-05T17:58:06.223Z,37.40
2019-04-05T18:00:46.789Z,37.90
2019-04-05T18:03:28.094Z,36.20
2019-04-05T18:06:08.781Z,36.03
2019-04-05T18:08:49.567Z,38.87
2019-04-05T18:11:30.271Z,37.53
2019-04-05T18:14:11.970Z,38.30
2019-04-05T18:16:52.437Z,37.70
2019-04-05T18:19:33.419Z,37.83
2019-04-05T18:22:14.211Z,36.57
2019-04-05T18:24:54.568Z,36.67
2019-04-05T18:27:35.085Z,36.97
2019-04-05T18:30:16.294Z,36.47
2019-04-05T18:32:57.693Z,37.47
2019-04-05T18:35:38.481Z,37.93
2019-04-05T18:38:19.421Z,37.57
2019-04-05T18:41:00.761Z,36.33
2019-04-05T18:43:42.040Z,37.57
2019-04-05T18:46:23.359Z,37.00
2019-04-05T18:49:04.843Z,36.00
2019-04-05T18:51:45.863Z,37.37
2019-04-05T18:54:27.010Z,39.60
2019-04-05T18:57:08.617Z,41.80
2019-04-05T18:59:50.084Z,36.90
2019-04-05T19:02:19.163Z,37.30
2019-04-05T19:05:07.522Z,39.43
2019-04-05T19:07:55.946Z,39.33
2019-04-05T19:10:44.259Z,37.00
2019-04-05T19:13:32.816Z,37.77
2019-04-05T19:16:02.009Z,38.30
2019-04-05T19:18:31.743Z,40.20
2019-04-05T19:21:00.854Z,38.67
2019-04-05T19:23:29.741Z,39.70
2019-04-05T19:25:58.711Z,41.70
2019-04-05T19:28:27.634Z,41.67
2019-04-05T19:48:34.804Z,38.33
2019-04-05T19:51:02.870Z,37.70
2019-04-05T19:53:31.740Z,38.83
2019-04-05T19:56:00.674Z,36.73
2019-04-05T19:58:29.692Z,38.53
2019-04-05T20:00:59.245Z,37.97
2019-04-05T20:03:28.390Z,38.83
2019-04-05T20:05:57.458Z,37.33
2019-04-05T20:08:26.298Z,35.70
2019-04-05T20:10:55.279Z,37.37
2019-04-05T20:13:24.170Z,34.77
2019-04-05T20:15:53.090Z,37.93
2019-04-05T20:18:22.029Z,37.40
2019-04-05T20:20:51.076Z,38.43
2019-04-05T20:23:19.990Z,36.30
2019-04-05T20:25:48.854Z,39.27
2019-04-05T20:28:17.759Z,38.60
2019-04-05T20:30:46.754Z,37.20
2019-04-05T20:33:15.754Z,36.43
2019-04-05T20:35:44.658Z,38.23
2019-04-05T20:38:13.510Z,38.47
2019-04-05T20:40:42.416Z,38.13
2019-04-05T20:43:11.284Z,40.27
2019-04-05T20:45:40.494Z,38.70
2019-04-05T20:48:09.500Z,39.93
2019-04-05T20:50:38.498Z,36.03
2019-04-05T20:53:07.494Z,36.90
2019-04-05T20:55:37.466Z,39.67
2019-04-05T20:58:06.682Z,38.90
2019-04-05T21:00:35.621Z,39.17
2019-04-05T21:03:04.594Z,38.60
2019-04-05T21:05:33.438Z,38.80
2019-04-05T21:08:02.296Z,39.30
2019-04-05T21:10:31.191Z,38.93
2019-04-05T21:13:00.084Z,37.83
2019-04-05T21:15:29.669Z,41.53
2019-04-05T21:17:58.544Z,38.03
2019-04-05T21:20:27.436Z,38.97
2019-04-05T21:22:56.394Z,36.80
2019-04-05T21:25:25.834Z,39.87
2019-04-05T21:27:54.748Z,40.00
2019-04-05T21:30:23.720Z,39.33
2019-04-05T21:32:52.660Z,39.10
2019-04-05T21:35:21.688Z,41.07
2019-04-05T21:37:50.752Z,39.67
2019-04-05T21:40:19.749Z,40.60
2019-04-05T21:42:48.635Z,40.30
2019-04-05T21:45:17.945Z,41.33
2019-04-05T21:47:47.956Z,42.00
2019-04-05T21:50:16.961Z,41.40
2019-04-05T21:52:45.941Z,40.30
2019-04-05T21:55:14.795Z,41.17
2019-04-05T21:57:43.698Z,40.10
2019-04-05T22:00:20.548Z,40.80
2019-04-05T22:02:49.783Z,40.53
2019-04-05T22:05:18.765Z,41.70
2019-04-05T22:07:47.686Z,40.57
2019-04-05T22:10:16.617Z,41.60
2019-04-05T22:12:45.691Z,45.37
2019-04-05T22:15:14.727Z,42.00
2019-04-05T22:17:43.519Z,43.63
2019-04-05T22:20:12.639Z,39.33
2019-04-05T22:22:41.480Z,43.90
2019-04-05T22:25:10.463Z,43.13
2019-04-05T22:27:39.383Z,40.97
2019-04-05T22:30:27.421Z,37.70
2019-04-05T22:32:56.547Z,44.37
2019-04-05T22:35:25.471Z,41.90
2019-04-05T22:38:14.259Z,40.63
2019-04-05T22:41:18.557Z,42.80
2019-04-05T22:47:21.577Z,40.00
2019-04-05T22:53:18.013Z,38.17
2019-04-05T22:56:06.409Z,38.03
2019-04-05T22:58:55.298Z,39.67
2019-04-05T23:01:44.250Z,40.47
2019-04-05T23:04:39.259Z,39.80
2019-04-05T23:07:28.113Z,40.10
2019-04-05T23:16:08.328Z,39.43
2019-04-05T23:18:56.786Z,38.90
2019-04-05T23:21:38.544Z,38.37
2019-04-05T23:24:20.625Z,37.47
2019-04-05T23:29:44.539Z,38.40
2019-04-05T23:32:26.099Z,38.67
2019-04-05T23:34:56.051Z,40.97
2019-04-05T23:37:25.392Z,39.03
2019-04-05T23:40:13.575Z,38.50
2019-04-05T23:43:01.592Z,38.33
2019-04-05T23:45:49.732Z,39.90
2019-04-05T23:48:37.749Z,39.27
2019-04-05T23:51:25.906Z,39.20
2019-04-05T23:54:13.936Z,39.57
2019-04-05T23:57:02.009Z,38.40
2019-04-05T23:59:50.353Z,40.07
